sensor_id;sensor_type;location;lat;lon;timestamp;P1;durP1;ratioP1;P2;durP2;ratioP2
77287;SDS011;66345;42.694;23.346;2023-05-16T00:00:47;18.33;;;11.60;;
77287;SDS011;66345;42.694;23.346;2023-05-16T00:03:13;19.70;;;12.18;;
77287;SDS011;66345;42.694;23.346;2023-05-16T00:05:38;19.20;;;12.63;;
77287;SDS011;66345;42.694;23.346;2023-05-16T00:08:04;18.87;;;13.07;;
77287;SDS011;66345;42.694;23.346;2023-05-16T00:10:30;18.38;;;12.32;;
77287;SDS011;66345;42.694;23.346;2023-05-16T00:12:55;20.83;;;12.50;;
77287;SDS011;66345;42.694;23.346;2023-05-16T00:15:21;18.80;;;12.38;;
77287;SDS011;66345;42.694;23.346;2023-05-16T00:17:47;20.00;;;14.07;;
77287;SDS011;66345;42.694;23.346;2023-05-16T00:20:13;18.23;;;12.48;;
77287;SDS011;66345;42.694;23.346;2023-05-16T00:22:41;18.00;;;12.82;;
77287;SDS011;66345;42.694;23.346;2023-05-16T00:25:07;19.75;;;13.70;;
77287;SDS011;66345;42.694;23.346;2023-05-16T00:27:34;17.70;;;12.45;;
77287;SDS011;66345;42.694;23.346;2023-05-16T00:30:00;19.63;;;12.45;;
77287;SDS011;66345;42.694;23.346;2023-05-16T00:32:26;17.63;;;11.50;;
77287;SDS011;66345;42.694;23.346;2023-05-16T00:34:52;18.55;;;12.10;;
77287;SDS011;66345;42.694;23.346;2023-05-16T00:37:17;16.33;;;11.50;;
77287;SDS011;66345;42.694;23.346;2023-05-16T00:39:43;18.53;;;12.17;;
77287;SDS011;66345;42.694;23.346;2023-05-16T00:42:08;18.07;;;13.03;;
77287;SDS011;66345;42.694;23.346;2023-05-16T00:44:33;19.23;;;12.32;;
77287;SDS011;66345;42.694;23.346;2023-05-16T00:46:59;16.45;;;11.98;;
77287;SDS011;66345;42.694;23.346;2023-05-16T00:49:26;16.08;;;11.63;;
77287;SDS011;66345;42.694;23.346;2023-05-16T00:51:52;16.10;;;11.27;;
77287;SDS011;66345;42.694;23.346;2023-05-16T00:54:19;15.65;;;11.60;;
77287;SDS011;66345;42.694;23.346;2023-05-16T00:56:47;16.92;;;11.70;;
77287;SDS011;66345;42.694;23.346;2023-05-16T00:59:12;16.17;;;11.82;;
77287;SDS011;66345;42.694;23.346;2023-05-16T01:01:38;15.95;;;11.48;;
77287;SDS011;66345;42.694;23.346;2023-05-16T01:04:05;17.67;;;11.53;;
77287;SDS011;66345;42.694;23.346;2023-05-16T01:06:32;15.93;;;11.10;;
77287;SDS011;66345;42.694;23.346;2023-05-16T01:08:58;16.98;;;11.75;;
77287;SDS011;66345;42.694;23.346;2023-05-16T01:11:33;16.00;;;11.30;;
77287;SDS011;66345;42.694;23.346;2023-05-16T01:17:04;19.17;;;11.93;;
77287;SDS011;66345;42.694;23.346;2023-05-16T01:22:28;18.92;;;12.75;;
77287;SDS011;66345;42.694;23.346;2023-05-16T01:25:15;17.30;;;12.03;;
77287;SDS011;66345;42.694;23.346;2023-05-16T01:44:22;15.80;;;11.30;;
77287;SDS011;66345;42.694;23.346;2023-05-16T01:47:05;16.38;;;10.30;;
77287;SDS011;66345;42.694;23.346;2023-05-16T01:52:15;12.63;;;9.35;;
77287;SDS011;66345;42.694;23.346;2023-05-16T01:55:09;18.52;;;10.13;;
77287;SDS011;66345;42.694;23.346;2023-05-16T01:57:39;13.93;;;9.38;;
77287;SDS011;66345;42.694;23.346;2023-05-16T02:00:06;14.52;;;9.30;;
77287;SDS011;66345;42.694;23.346;2023-05-16T02:02:32;14.35;;;9.60;;
77287;SDS011;66345;42.694;23.346;2023-05-16T02:04:58;12.97;;;8.87;;
77287;SDS011;66345;42.694;23.346;2023-05-16T02:07:23;14.47;;;9.30;;
77287;SDS011;66345;42.694;23.346;2023-05-16T02:09:49;14.00;;;9.57;;
77287;SDS011;66345;42.694;23.346;2023-05-16T02:12:15;16.80;;;9.90;;
77287;SDS011;66345;42.694;23.346;2023-05-16T02:14:40;16.00;;;9.80;;
77287;SDS011;66345;42.694;23.346;2023-05-16T02:17:06;12.90;;;9.40;;
77287;SDS011;66345;42.694;23.346;2023-05-16T02:19:31;14.90;;;9.70;;
77287;SDS011;66345;42.694;23.346;2023-05-16T02:21:57;14.70;;;9.13;;
77287;SDS011;66345;42.694;23.346;2023-05-16T02:24:22;15.23;;;10.40;;
77287;SDS011;66345;42.694;23.346;2023-05-16T02:26:47;16.45;;;9.70;;
77287;SDS011;66345;42.694;23.346;2023-05-16T02:29:13;15.20;;;9.93;;
77287;SDS011;66345;42.694;23.346;2023-05-16T02:31:40;15.90;;;10.15;;
77287;SDS011;66345;42.694;23.346;2023-05-16T02:34:06;15.00;;;9.85;;
77287;SDS011;66345;42.694;23.346;2023-05-16T02:36:32;15.80;;;8.93;;
77287;SDS011;66345;42.694;23.346;2023-05-16T02:39:00;13.18;;;9.50;;
77287;SDS011;66345;42.694;23.346;2023-05-16T02:41:27;16.02;;;10.07;;
77287;SDS011;66345;42.694;23.346;2023-05-16T02:43:53;15.17;;;8.90;;
77287;SDS011;66345;42.694;23.346;2023-05-16T02:46:22;20.10;;;9.83;;
77287;SDS011;66345;42.694;23.346;2023-05-16T02:48:54;15.20;;;8.88;;
77287;SDS011;66345;42.694;23.346;2023-05-16T02:51:20;12.10;;;9.18;;
77287;SDS011;66345;42.694;23.346;2023-05-16T02:53:47;13.15;;;9.38;;
77287;SDS011;66345;42.694;23.346;2023-05-16T02:56:13;12.60;;;8.43;;
77287;SDS011;66345;42.694;23.346;2023-05-16T02:58:38;13.07;;;9.88;;
77287;SDS011;66345;42.694;23.346;2023-05-16T03:01:04;12.45;;;8.85;;
77287;SDS011;66345;42.694;23.346;2023-05-16T03:03:30;14.65;;;9.32;;
77287;SDS011;66345;42.694;23.346;2023-05-16T03:05:59;13.10;;;8.68;;
77287;SDS011;66345;42.694;23.346;2023-05-16T03:08:24;14.73;;;8.95;;
77287;SDS011;66345;42.694;23.346;2023-05-16T03:10:50;13.43;;;8.80;;
77287;SDS011;66345;42.694;23.346;2023-05-16T03:13:15;13.63;;;8.83;;
77287;SDS011;66345;42.694;23.346;2023-05-16T03:15:41;14.17;;;8.93;;
77287;SDS011;66345;42.694;23.346;2023-05-16T03:18:06;16.13;;;8.57;;
77287;SDS011;66345;42.694;23.346;2023-05-16T03:20:32;15.03;;;8.87;;
77287;SDS011;66345;42.694;23.346;2023-05-16T03:22:57;14.00;;;9.40;;
77287;SDS011;66345;42.694;23.346;2023-05-16T03:25:23;13.48;;;9.05;;
77287;SDS011;66345;42.694;23.346;2023-05-16T03:27:50;15.63;;;9.20;;
77287;SDS011;66345;42.694;23.346;2023-05-16T03:30:15;13.88;;;9.20;;
77287;SDS011;66345;42.694;23.346;2023-05-16T03:32:41;14.13;;;8.93;;
77287;SDS011;66345;42.694;23.346;2023-05-16T03:35:09;14.55;;;9.52;;
77287;SDS011;66345;42.694;23.346;2023-05-16T03:37:35;14.68;;;9.65;;
77287;SDS011;66345;42.694;23.346;2023-05-16T03:40:01;16.50;;;9.20;;
77287;SDS011;66345;42.694;23.346;2023-05-16T03:42:29;19.15;;;9.45;;
77287;SDS011;66345;42.694;23.346;2023-05-16T03:44:56;15.45;;;9.13;;
77287;SDS011;66345;42.694;23.346;2023-05-16T03:47:22;16.67;;;10.23;;
77287;SDS011;66345;42.694;23.346;2023-05-16T03:49:47;16.93;;;9.57;;
77287;SDS011;66345;42.694;23.346;2023-05-16T03:52:12;16.55;;;10.35;;
77287;SDS011;66345;42.694;23.346;2023-05-16T03:54:38;15.10;;;9.83;;
77287;SDS011;66345;42.694;23.346;2023-05-16T03:57:04;14.87;;;9.90;;
77287;SDS011;66345;42.694;23.346;2023-05-16T03:59:30;15.38;;;10.00;;
77287;SDS011;66345;42.694;23.346;2023-05-16T04:01:55;13.90;;;10.03;;
77287;SDS011;66345;42.694;23.346;2023-05-16T04:04:21;15.77;;;9.93;;
77287;SDS011;66345;42.694;23.346;2023-05-16T04:06:46;16.77;;;9.93;;
77287;SDS011;66345;42.694;23.346;2023-05-16T04:09:12;16.77;;;10.13;;
77287;SDS011;66345;42.694;23.346;2023-05-16T04:11:37;18.63;;;9.60;;
77287;SDS011;66345;42.694;23.346;2023-05-16T04:14:03;17.10;;;10.07;;
77287;SDS011;66345;42.694;23.346;2023-05-16T04:16:28;16.53;;;9.33;;
77287;SDS011;66345;42.694;23.346;2023-05-16T04:18:54;18.23;;;9.90;;
77287;SDS011;66345;42.694;23.346;2023-05-16T04:21:20;17.50;;;10.00;;
77287;SDS011;66345;42.694;23.346;2023-05-16T04:23:46;16.90;;;10.10;;
77287;SDS011;66345;42.694;23.346;2023-05-16T04:26:11;15.53;;;9.80;;
77287;SDS011;66345;42.694;23.346;2023-05-16T04:28:38;13.73;;;9.65;;
77287;SDS011;66345;42.694;23.346;2023-05-16T04:31:04;15.07;;;9.87;;
77287;SDS011;66345;42.694;23.346;2023-05-16T04:33:30;14.98;;;9.90;;
77287;SDS011;66345;42.694;23.346;2023-05-16T04:35:55;14.63;;;9.83;;
77287;SDS011;66345;42.694;23.346;2023-05-16T04:38:22;14.35;;;10.05;;
77287;SDS011;66345;42.694;23.346;2023-05-16T04:40:48;16.07;;;10.07;;
77287;SDS011;66345;42.694;23.346;2023-05-16T04:43:14;18.88;;;9.57;;
77287;SDS011;66345;42.694;23.346;2023-05-16T04:45:40;16.45;;;10.13;;
77287;SDS011;66345;42.694;23.346;2023-05-16T04:48:07;15.77;;;10.00;;
77287;SDS011;66345;42.694;23.346;2023-05-16T04:50:32;13.05;;;8.98;;
77287;SDS011;66345;42.694;23.346;2023-05-16T04:52:58;16.37;;;9.47;;
77287;SDS011;66345;42.694;23.346;2023-05-16T04:55:23;20.43;;;10.00;;
77287;SDS011;66345;42.694;23.346;2023-05-16T04:57:49;16.45;;;10.55;;
77287;SDS011;66345;42.694;23.346;2023-05-16T05:00:15;16.67;;;9.88;;
77287;SDS011;66345;42.694;23.346;2023-05-16T05:02:41;17.52;;;10.27;;
77287;SDS011;66345;42.694;23.346;2023-05-16T05:05:07;18.67;;;10.10;;
77287;SDS011;66345;42.694;23.346;2023-05-16T05:07:33;22.75;;;10.05;;
77287;SDS011;66345;42.694;23.346;2023-05-16T05:09:58;15.87;;;10.87;;
77287;SDS011;66345;42.694;23.346;2023-05-16T05:12:24;15.57;;;10.20;;
77287;SDS011;66345;42.694;23.346;2023-05-16T05:14:51;18.35;;;10.07;;
77287;SDS011;66345;42.694;23.346;2023-05-16T05:17:16;16.07;;;9.80;;
77287;SDS011;66345;42.694;23.346;2023-05-16T05:19:42;20.42;;;10.93;;
77287;SDS011;66345;42.694;23.346;2023-05-16T05:22:07;18.23;;;10.20;;
77287;SDS011;66345;42.694;23.346;2023-05-16T05:24:33;16.00;;;10.40;;
77287;SDS011;66345;42.694;23.346;2023-05-16T05:26:58;13.93;;;9.13;;
77287;SDS011;66345;42.694;23.346;2023-05-16T05:29:24;16.90;;;9.82;;
77287;SDS011;66345;42.694;23.346;2023-05-16T05:31:50;19.38;;;10.48;;
77287;SDS011;66345;42.694;23.346;2023-05-16T05:34:15;14.88;;;9.93;;
77287;SDS011;66345;42.694;23.346;2023-05-16T05:36:41;16.57;;;10.17;;
77287;SDS011;66345;42.694;23.346;2023-05-16T05:39:06;15.95;;;10.10;;
77287;SDS011;66345;42.694;23.346;2023-05-16T05:41:32;20.13;;;10.43;;
77287;SDS011;66345;42.694;23.346;2023-05-16T05:43:58;17.90;;;10.73;;
77287;SDS011;66345;42.694;23.346;2023-05-16T05:46:23;16.30;;;10.20;;
77287;SDS011;66345;42.694;23.346;2023-05-16T05:48:49;17.92;;;10.23;;
77287;SDS011;66345;42.694;23.346;2023-05-16T05:51:15;19.27;;;10.63;;
77287;SDS011;66345;42.694;23.346;2023-05-16T05:53:41;18.48;;;10.13;;
77287;SDS011;66345;42.694;23.346;2023-05-16T05:56:07;18.20;;;9.68;;
77287;SDS011;66345;42.694;23.346;2023-05-16T05:58:32;15.27;;;9.37;;
77287;SDS011;66345;42.694;23.346;2023-05-16T06:00:58;15.43;;;8.83;;
77287;SDS011;66345;42.694;23.346;2023-05-16T06:03:23;15.23;;;8.13;;
77287;SDS011;66345;42.694;23.346;2023-05-16T06:05:49;19.25;;;10.07;;
77287;SDS011;66345;42.694;23.346;2023-05-16T06:08:14;15.73;;;9.03;;
77287;SDS011;66345;42.694;23.346;2023-05-16T06:10:40;14.60;;;9.63;;
77287;SDS011;66345;42.694;23.346;2023-05-16T06:13:08;12.70;;;8.80;;
77287;SDS011;66345;42.694;23.346;2023-05-16T06:15:33;14.23;;;8.57;;
77287;SDS011;66345;42.694;23.346;2023-05-16T06:17:59;14.75;;;9.52;;
77287;SDS011;66345;42.694;23.346;2023-05-16T06:20:24;14.10;;;8.47;;
77287;SDS011;66345;42.694;23.346;2023-05-16T06:22:49;15.80;;;9.10;;
77287;SDS011;66345;42.694;23.346;2023-05-16T06:25:15;16.13;;;9.80;;
77287;SDS011;66345;42.694;23.346;2023-05-16T06:27:40;13.55;;;9.23;;
77287;SDS011;66345;42.694;23.346;2023-05-16T06:30:06;15.97;;;9.07;;
77287;SDS011;66345;42.694;23.346;2023-05-16T06:32:32;17.17;;;9.00;;
77287;SDS011;66345;42.694;23.346;2023-05-16T06:34:58;16.67;;;8.43;;
77287;SDS011;66345;42.694;23.346;2023-05-16T06:37:23;15.67;;;8.73;;
77287;SDS011;66345;42.694;23.346;2023-05-16T06:39:50;14.40;;;8.75;;
77287;SDS011;66345;42.694;23.346;2023-05-16T06:42:15;13.47;;;7.80;;
77287;SDS011;66345;42.694;23.346;2023-05-16T06:44:41;15.25;;;8.45;;
77287;SDS011;66345;42.694;23.346;2023-05-16T06:47:06;13.47;;;8.10;;
77287;SDS011;66345;42.694;23.346;2023-05-16T06:49:32;16.97;;;9.33;;
77287;SDS011;66345;42.694;23.346;2023-05-16T06:51:57;16.05;;;8.65;;
77287;SDS011;66345;42.694;23.346;2023-05-16T06:54:23;15.50;;;9.57;;
77287;SDS011;66345;42.694;23.346;2023-05-16T06:56:48;15.50;;;8.23;;
77287;SDS011;66345;42.694;23.346;2023-05-16T06:59:14;14.50;;;9.15;;
77287;SDS011;66345;42.694;23.346;2023-05-16T07:01:40;17.87;;;9.13;;
77287;SDS011;66345;42.694;23.346;2023-05-16T07:04:06;14.45;;;8.80;;
77287;SDS011;66345;42.694;23.346;2023-05-16T07:06:32;13.75;;;8.38;;
77287;SDS011;66345;42.694;23.346;2023-05-16T07:08:57;15.15;;;8.32;;
77287;SDS011;66345;42.694;23.346;2023-05-16T07:11:23;16.27;;;8.63;;
77287;SDS011;66345;42.694;23.346;2023-05-16T07:13:48;12.80;;;8.07;;
77287;SDS011;66345;42.694;23.346;2023-05-16T07:16:13;11.93;;;7.33;;
77287;SDS011;66345;42.694;23.346;2023-05-16T07:18:39;18.17;;;7.70;;
77287;SDS011;66345;42.694;23.346;2023-05-16T07:21:04;11.43;;;7.00;;
77287;SDS011;66345;42.694;23.346;2023-05-16T07:23:30;12.40;;;6.87;;
77287;SDS011;66345;42.694;23.346;2023-05-16T07:25:55;10.85;;;7.20;;
77287;SDS011;66345;42.694;23.346;2023-05-16T07:28:21;16.73;;;7.70;;
77287;SDS011;66345;42.694;23.346;2023-05-16T07:30:47;11.52;;;7.03;;
77287;SDS011;66345;42.694;23.346;2023-05-16T07:33:13;12.70;;;6.83;;
77287;SDS011;66345;42.694;23.346;2023-05-16T07:35:38;16.77;;;7.30;;
77287;SDS011;66345;42.694;23.346;2023-05-16T07:38:04;11.70;;;6.88;;
77287;SDS011;66345;42.694;23.346;2023-05-16T07:40:30;12.27;;;6.97;;
77287;SDS011;66345;42.694;23.346;2023-05-16T07:42:55;13.57;;;7.25;;
77287;SDS011;66345;42.694;23.346;2023-05-16T07:45:21;13.55;;;6.85;;
77287;SDS011;66345;42.694;23.346;2023-05-16T07:47:46;15.23;;;7.77;;
77287;SDS011;66345;42.694;23.346;2023-05-16T07:50:12;19.87;;;8.00;;
77287;SDS011;66345;42.694;23.346;2023-05-16T07:52:37;13.90;;;7.90;;
77287;SDS011;66345;42.694;23.346;2023-05-16T07:55:03;12.30;;;7.50;;
77287;SDS011;66345;42.694;23.346;2023-05-16T07:57:28;13.50;;;7.60;;
77287;SDS011;66345;42.694;23.346;2023-05-16T07:59:54;13.10;;;7.72;;
77287;SDS011;66345;42.694;23.346;2023-05-16T08:02:20;14.20;;;7.50;;
77287;SDS011;66345;42.694;23.346;2023-05-16T08:04:48;13.43;;;7.25;;
77287;SDS011;66345;42.694;23.346;2023-05-16T08:07:14;12.63;;;7.00;;
77287;SDS011;66345;42.694;23.346;2023-05-16T08:09:39;11.40;;;6.93;;
77287;SDS011;66345;42.694;23.346;2023-05-16T08:12:05;15.20;;;7.22;;
77287;SDS011;66345;42.694;23.346;2023-05-16T08:14:31;12.10;;;7.10;;
77287;SDS011;66345;42.694;23.346;2023-05-16T08:16:59;14.03;;;7.80;;
77287;SDS011;66345;42.694;23.346;2023-05-16T08:19:25;12.85;;;7.07;;
77287;SDS011;66345;42.694;23.346;2023-05-16T08:21:50;17.40;;;7.53;;
77287;SDS011;66345;42.694;23.346;2023-05-16T08:24:16;12.57;;;7.40;;
77287;SDS011;66345;42.694;23.346;2023-05-16T08:26:42;12.07;;;7.37;;
77287;SDS011;66345;42.694;23.346;2023-05-16T08:29:07;16.33;;;8.00;;
77287;SDS011;66345;42.694;23.346;2023-05-16T08:31:32;10.93;;;7.23;;
77287;SDS011;66345;42.694;23.346;2023-05-16T08:33:58;14.57;;;7.70;;
77287;SDS011;66345;42.694;23.346;2023-05-16T08:36:25;13.18;;;8.27;;
77287;SDS011;66345;42.694;23.346;2023-05-16T08:38:51;16.20;;;8.13;;
77287;SDS011;66345;42.694;23.346;2023-05-16T08:41:16;14.23;;;7.43;;
77287;SDS011;66345;42.694;23.346;2023-05-16T08:43:42;13.60;;;7.57;;
77287;SDS011;66345;42.694;23.346;2023-05-16T08:46:07;13.57;;;7.57;;
77287;SDS011;66345;42.694;23.346;2023-05-16T08:48:34;17.30;;;7.55;;
77287;SDS011;66345;42.694;23.346;2023-05-16T08:51:01;13.67;;;7.10;;
77287;SDS011;66345;42.694;23.346;2023-05-16T08:53:30;12.90;;;7.53;;
77287;SDS011;66345;42.694;23.346;2023-05-16T08:56:00;14.35;;;7.35;;
77287;SDS011;66345;42.694;23.346;2023-05-16T08:58:27;12.07;;;7.47;;
77287;SDS011;66345;42.694;23.346;2023-05-16T09:00:54;39.70;;;16.85;;
77287;SDS011;66345;42.694;23.346;2023-05-16T09:03:20;89.30;;;39.10;;
77287;SDS011;66345;42.694;23.346;2023-05-16T09:05:48;25.65;;;13.55;;
77287;SDS011;66345;42.694;23.346;2023-05-16T09:08:14;21.40;;;9.48;;
77287;SDS011;66345;42.694;23.346;2023-05-16T09:10:40;15.95;;;7.97;;
77287;SDS011;66345;42.694;23.346;2023-05-16T09:13:05;13.67;;;7.13;;
77287;SDS011;66345;42.694;23.346;2023-05-16T09:15:32;10.80;;;6.70;;
77287;SDS011;66345;42.694;23.346;2023-05-16T09:18:01;12.70;;;6.75;;
77287;SDS011;66345;42.694;23.346;2023-05-16T09:20:27;14.45;;;7.72;;
77287;SDS011;66345;42.694;23.346;2023-05-16T09:22:54;9.87;;;6.43;;
77287;SDS011;66345;42.694;23.346;2023-05-16T09:25:21;13.00;;;7.30;;
77287;SDS011;66345;42.694;23.346;2023-05-16T09:27:51;13.95;;;6.68;;
77287;SDS011;66345;42.694;23.346;2023-05-16T09:30:20;10.63;;;6.63;;
77287;SDS011;66345;42.694;23.346;2023-05-16T09:32:49;12.60;;;6.30;;
77287;SDS011;66345;42.694;23.346;2023-05-16T09:35:15;12.38;;;7.05;;
77287;SDS011;66345;42.694;23.346;2023-05-16T09:37:45;12.57;;;6.72;;
77287;SDS011;66345;42.694;23.346;2023-05-16T09:40:12;15.65;;;8.43;;
77287;SDS011;66345;42.694;23.346;2023-05-16T09:42:37;11.55;;;6.53;;
77287;SDS011;66345;42.694;23.346;2023-05-16T09:45:04;11.40;;;6.73;;
77287;SDS011;66345;42.694;23.346;2023-05-16T09:47:30;13.23;;;6.82;;
77287;SDS011;66345;42.694;23.346;2023-05-16T09:49:55;9.83;;;6.63;;
77287;SDS011;66345;42.694;23.346;2023-05-16T09:52:21;12.18;;;6.57;;
77287;SDS011;66345;42.694;23.346;2023-05-16T09:54:47;10.33;;;6.27;;
77287;SDS011;66345;42.694;23.346;2023-05-16T09:57:18;11.40;;;6.20;;
77287;SDS011;66345;42.694;23.346;2023-05-16T09:59:45;11.77;;;6.25;;
77287;SDS011;66345;42.694;23.346;2023-05-16T10:02:11;10.60;;;5.80;;
77287;SDS011;66345;42.694;23.346;2023-05-16T10:04:37;10.57;;;5.95;;
77287;SDS011;66345;42.694;23.346;2023-05-16T10:07:03;9.20;;;6.00;;
77287;SDS011;66345;42.694;23.346;2023-05-16T10:09:32;12.10;;;6.20;;
77287;SDS011;66345;42.694;23.346;2023-05-16T10:12:02;12.48;;;5.75;;
77287;SDS011;66345;42.694;23.346;2023-05-16T10:14:39;10.37;;;5.97;;
77287;SDS011;66345;42.694;23.346;2023-05-16T10:17:10;12.32;;;7.38;;
77287;SDS011;66345;42.694;23.346;2023-05-16T10:19:38;11.23;;;5.85;;
77287;SDS011;66345;42.694;23.346;2023-05-16T10:22:05;10.57;;;6.00;;
77287;SDS011;66345;42.694;23.346;2023-05-16T10:27:17;12.33;;;6.37;;
77287;SDS011;66345;42.694;23.346;2023-05-16T10:29:43;14.20;;;6.70;;
77287;SDS011;66345;42.694;23.346;2023-05-16T10:32:09;11.52;;;6.13;;
77287;SDS011;66345;42.694;23.346;2023-05-16T10:34:36;8.70;;;5.68;;
77287;SDS011;66345;42.694;23.346;2023-05-16T10:37:03;12.30;;;6.53;;
77287;SDS011;66345;42.694;23.346;2023-05-16T10:39:29;14.65;;;6.43;;
77287;SDS011;66345;42.694;23.346;2023-05-16T10:41:56;13.02;;;6.40;;
77287;SDS011;66345;42.694;23.346;2023-05-16T10:44:22;10.05;;;6.65;;
77287;SDS011;66345;42.694;23.346;2023-05-16T10:46:47;10.97;;;5.87;;
77287;SDS011;66345;42.694;23.346;2023-05-16T10:49:23;10.07;;;5.67;;
77287;SDS011;66345;42.694;23.346;2023-05-16T10:52:32;12.90;;;5.90;;
77287;SDS011;66345;42.694;23.346;2023-05-16T10:54:42;12.20;;;6.05;;
77287;SDS011;66345;42.694;23.346;2023-05-16T10:57:21;9.93;;;5.65;;
77287;SDS011;66345;42.694;23.346;2023-05-16T10:59:48;13.53;;;6.30;;
77287;SDS011;66345;42.694;23.346;2023-05-16T11:02:22;10.93;;;5.65;;
77287;SDS011;66345;42.694;23.346;2023-05-16T11:04:49;12.55;;;6.55;;
77287;SDS011;66345;42.694;23.346;2023-05-16T11:07:24;13.45;;;6.20;;
77287;SDS011;66345;42.694;23.346;2023-05-16T11:10:09;13.95;;;6.80;;
77287;SDS011;66345;42.694;23.346;2023-05-16T11:12:43;11.90;;;6.67;;
77287;SDS011;66345;42.694;23.346;2023-05-16T11:15:17;12.57;;;6.20;;
77287;SDS011;66345;42.694;23.346;2023-05-16T11:17:48;11.77;;;6.57;;
77287;SDS011;66345;42.694;23.346;2023-05-16T11:20:24;13.20;;;5.90;;
77287;SDS011;66345;42.694;23.346;2023-05-16T11:23:16;11.32;;;6.45;;
77287;SDS011;66345;42.694;23.346;2023-05-16T11:25:42;17.13;;;6.82;;
77287;SDS011;66345;42.694;23.346;2023-05-16T11:28:10;11.80;;;6.47;;
77287;SDS011;66345;42.694;23.346;2023-05-16T11:30:41;11.93;;;6.88;;
77287;SDS011;66345;42.694;23.346;2023-05-16T11:33:08;13.73;;;6.40;;
77287;SDS011;66345;42.694;23.346;2023-05-16T11:35:33;9.23;;;6.53;;
77287;SDS011;66345;42.694;23.346;2023-05-16T11:37:59;15.00;;;7.50;;
77287;SDS011;66345;42.694;23.346;2023-05-16T11:40:25;10.13;;;6.10;;
77287;SDS011;66345;42.694;23.346;2023-05-16T11:42:51;13.02;;;6.55;;
77287;SDS011;66345;42.694;23.346;2023-05-16T11:45:17;13.40;;;6.38;;
77287;SDS011;66345;42.694;23.346;2023-05-16T11:47:46;14.10;;;7.00;;
77287;SDS011;66345;42.694;23.346;2023-05-16T11:50:13;13.87;;;6.33;;
77287;SDS011;66345;42.694;23.346;2023-05-16T11:52:43;21.13;;;7.65;;
77287;SDS011;66345;42.694;23.346;2023-05-16T11:55:11;16.02;;;6.88;;
77287;SDS011;66345;42.694;23.346;2023-05-16T11:57:37;12.35;;;6.47;;
77287;SDS011;66345;42.694;23.346;2023-05-16T12:00:04;13.00;;;6.38;;
77287;SDS011;66345;42.694;23.346;2023-05-16T12:02:38;13.93;;;7.27;;
77287;SDS011;66345;42.694;23.346;2023-05-16T12:05:07;14.00;;;6.32;;
77287;SDS011;66345;42.694;23.346;2023-05-16T12:07:34;13.00;;;6.40;;
77287;SDS011;66345;42.694;23.346;2023-05-16T12:10:05;12.27;;;6.22;;
77287;SDS011;66345;42.694;23.346;2023-05-16T12:12:35;12.90;;;6.38;;
77287;SDS011;66345;42.694;23.346;2023-05-16T12:15:02;12.23;;;5.90;;
77287;SDS011;66345;42.694;23.346;2023-05-16T12:17:30;10.85;;;6.38;;
77287;SDS011;66345;42.694;23.346;2023-05-16T12:19:56;12.30;;;6.13;;
77287;SDS011;66345;42.694;23.346;2023-05-16T12:22:23;10.48;;;5.43;;
77287;SDS011;66345;42.694;23.346;2023-05-16T12:24:49;10.82;;;6.20;;
77287;SDS011;66345;42.694;23.346;2023-05-16T12:27:21;10.83;;;6.00;;
77287;SDS011;66345;42.694;23.346;2023-05-16T12:29:47;12.93;;;6.05;;
77287;SDS011;66345;42.694;23.346;2023-05-16T12:32:17;12.45;;;5.18;;
77287;SDS011;66345;42.694;23.346;2023-05-16T12:34:50;12.93;;;5.80;;
77287;SDS011;66345;42.694;23.346;2023-05-16T12:37:16;12.25;;;6.00;;
77287;SDS011;66345;42.694;23.346;2023-05-16T12:39:42;12.83;;;6.07;;
77287;SDS011;66345;42.694;23.346;2023-05-16T12:42:11;12.45;;;5.95;;
77287;SDS011;66345;42.694;23.346;2023-05-16T12:44:37;8.98;;;5.80;;
77287;SDS011;66345;42.694;23.346;2023-05-16T12:47:03;12.07;;;5.73;;
77287;SDS011;66345;42.694;23.346;2023-05-16T12:49:35;13.82;;;6.13;;
77287;SDS011;66345;42.694;23.346;2023-05-16T12:52:01;11.68;;;6.07;;
77287;SDS011;66345;42.694;23.346;2023-05-16T12:54:29;11.60;;;5.60;;
77287;SDS011;66345;42.694;23.346;2023-05-16T12:56:55;10.70;;;6.25;;
77287;SDS011;66345;42.694;23.346;2023-05-16T12:59:21;12.40;;;6.63;;
77287;SDS011;66345;42.694;23.346;2023-05-16T13:01:46;11.93;;;6.67;;
77287;SDS011;66345;42.694;23.346;2023-05-16T13:04:12;11.50;;;6.73;;
77287;SDS011;66345;42.694;23.346;2023-05-16T13:06:43;15.30;;;7.25;;
77287;SDS011;66345;42.694;23.346;2023-05-16T13:09:08;12.93;;;7.20;;
77287;SDS011;66345;42.694;23.346;2023-05-16T13:11:35;11.95;;;6.97;;
77287;SDS011;66345;42.694;23.346;2023-05-16T13:14:02;12.00;;;6.90;;
77287;SDS011;66345;42.694;23.346;2023-05-16T13:16:28;11.05;;;6.25;;
77287;SDS011;66345;42.694;23.346;2023-05-16T13:18:53;11.68;;;6.72;;
77287;SDS011;66345;42.694;23.346;2023-05-16T13:21:18;13.33;;;6.50;;
77287;SDS011;66345;42.694;23.346;2023-05-16T13:23:46;12.82;;;6.93;;
77287;SDS011;66345;42.694;23.346;2023-05-16T13:26:11;15.63;;;6.97;;
77287;SDS011;66345;42.694;23.346;2023-05-16T13:28:37;11.60;;;6.43;;
77287;SDS011;66345;42.694;23.346;2023-05-16T13:31:02;17.07;;;6.90;;
77287;SDS011;66345;42.694;23.346;2023-05-16T13:33:28;13.57;;;7.23;;
77287;SDS011;66345;42.694;23.346;2023-05-16T13:35:54;17.63;;;6.97;;
77287;SDS011;66345;42.694;23.346;2023-05-16T13:38:20;13.60;;;6.88;;
77287;SDS011;66345;42.694;23.346;2023-05-16T13:40:46;13.07;;;7.03;;
77287;SDS011;66345;42.694;23.346;2023-05-16T13:43:12;11.83;;;6.97;;
77287;SDS011;66345;42.694;23.346;2023-05-16T13:45:39;15.90;;;6.32;;
77287;SDS011;66345;42.694;23.346;2023-05-16T13:48:05;12.00;;;6.67;;
77287;SDS011;66345;42.694;23.346;2023-05-16T13:50:31;12.68;;;6.65;;
77287;SDS011;66345;42.694;23.346;2023-05-16T13:52:56;12.13;;;6.87;;
77287;SDS011;66345;42.694;23.346;2023-05-16T13:55:22;16.75;;;6.90;;
77287;SDS011;66345;42.694;23.346;2023-05-16T13:57:47;14.77;;;7.70;;
77287;SDS011;66345;42.694;23.346;2023-05-16T14:00:13;17.95;;;7.82;;
77287;SDS011;66345;42.694;23.346;2023-05-16T14:02:39;13.57;;;6.73;;
77287;SDS011;66345;42.694;23.346;2023-05-16T14:05:08;13.13;;;7.13;;
77287;SDS011;66345;42.694;23.346;2023-05-16T14:07:34;12.70;;;6.70;;
77287;SDS011;66345;42.694;23.346;2023-05-16T14:10:00;13.13;;;7.30;;
77287;SDS011;66345;42.694;23.346;2023-05-16T14:12:25;29.42;;;17.35;;
77287;SDS011;66345;42.694;23.346;2023-05-16T14:14:51;16.37;;;9.90;;
77287;SDS011;66345;42.694;23.346;2023-05-16T14:17:18;18.08;;;9.23;;
77287;SDS011;66345;42.694;23.346;2023-05-16T14:19:44;14.00;;;8.43;;
77287;SDS011;66345;42.694;23.346;2023-05-16T14:22:09;16.80;;;8.20;;
77287;SDS011;66345;42.694;23.346;2023-05-16T14:24:35;20.63;;;11.88;;
77287;SDS011;66345;42.694;23.346;2023-05-16T14:27:01;17.57;;;8.80;;
77287;SDS011;66345;42.694;23.346;2023-05-16T14:29:27;16.85;;;7.72;;
77287;SDS011;66345;42.694;23.346;2023-05-16T14:31:52;14.53;;;7.50;;
77287;SDS011;66345;42.694;23.346;2023-05-16T14:34:18;21.20;;;8.80;;
77287;SDS011;66345;42.694;23.346;2023-05-16T14:36:43;14.70;;;7.95;;
77287;SDS011;66345;42.694;23.346;2023-05-16T14:39:09;13.87;;;7.50;;
77287;SDS011;66345;42.694;23.346;2023-05-16T14:41:34;15.73;;;8.50;;
77287;SDS011;66345;42.694;23.346;2023-05-16T14:44:00;15.93;;;8.10;;